Bellmawr, New Jersey
Current Conditions -  °F | °C
As of 11:54 PM on Friday 24 Oct 2014 (Local Time) from KPHL Reporting Station
Scattered Clouds Scattered Clouds  
Wind Chill: 57°   Ceiling: Unl
Heat Index: 57°   Visibility: 10mi
Dew Point: 38°   Wind: 7mph
Humidity: 49%   Direction: 280°W
Pressure: 29.89"   Gusts: NA
Location:  39.87°N, 75.08°W
Report Text: KPHL 250354Z 28006KT 10SM SCT250 14/03 A2989 RMK AO2 SLP122 T01390033
Loading
Personal Weather Stations






























Interactive Weather Map
Tropical Storm Tracking
New forecast layout! Learn more

10-Day Weather Forecast

Advertisements
Track Severe Weather on mobile